Terminal Aerodrome Forecast
Issued by NWS

Home | Current Version | Previous Version | Text Only | Print | Product List | Glossary On
Versions: 1 2 3 4 5 6 7 8 9 10 11 12 13 14
000
FTUS45 KGJT 212342
TAFEGE
TAF
KEGE 212342Z 2200/2224 30007KT P6SM VCTS SCT080CB BKN110
     FM220400 VRB04KT P6SM VCSH OVC080
     FM220700 VRB03KT P6SM BKN080
     FM221400 VRB04KT P6SM SCT150
     FM222100 04006KT P6SM SCT150
      AMD LTD TO CLD VIS AND WIND 2201/2213=

USA.gov is the U.S. government's official web portal to all federal, state and local government web resources and services.